Key West, FL

8:58 PM EST on November 26, 2014 (GMT -0500)
Dade County-Homestead Regional | Change Station
CLOSE
Current Station
Airport
Location: Homestead AFB,
Elevation: 7 ft
Nearby Weather Stations

Elev 7 ft 25.49 °N, 80.38 °W | Updated 1 hour ago

Mostly Cloudy
Mostly Cloudy
63 °F
Feels Like 63 °F
N
12
Wind Variable Wind from NNW

Today
High -- | Low -- °F
--% Chance of Precip.
Yesterday
High -- | Low -- °F
Precip. -- in
6:50 AM 5:37 PM
Waxing Crescent, 24% visible
Pressure 30.17 in
Visibility 10.0 miles
Clouds Clear
Dew Point 49 °F
Humidity 61%
Rainfall 0.05 in
Snow Depth Not available.
UV 0 out of 12
Pollen 1.30 out of 12
Air Quality Not available.
Flu Activity Not available.
METAR KHST 270058Z AUTO 34010KT 10SM CLR 17/10 A3016 RMK AO2 RAB0007E0045DZB0043E0044 SLP216 P0000 T01700095 $

More Conditions Fewer Conditions

Pressure 30.17 in
Visibility 10.0 miles
Clouds Clear
Dew Point 49 °F
Humidity 61%
Rainfall 0.05 in
Snow Depth Not available.
UV 0 out of 12
Pollen 1.30 out of 12
Air Quality Not available.
Flu Activity Not available.
METAR KHST 270058Z AUTO 34010KT 10SM CLR 17/10 A3016 RMK AO2 RAB0007E0045DZB0043E0044 SLP216 P0000 T01700095 $

More Conditions Fewer Conditions

Nowcast | as of 7:16 PM EST on November 26, 2014

Isolated light showers and a few sprinkles are found across the island chain and surrounding nearshore waters mainly from Ocean Reef to Big Pine Key. Through 9 PM...motion of these showers will be toward the east- northeast at 15 to 20 knots.

×

10-Day Weather Forecast

Almanac

Astronomy

Nov. 26, 2014 Rise Set
Actual Time
Civil Twilight
Nautical Twilight
Astronomical Twilight
Moon
Length of Visible Light
Length of Day
Tomorrow will be .
, % of the Moon is Illuminated

Today's Extremes

State Highs State Lows

Community

WunderPhotos

Upload Photos

1,773,940 photos uploaded!

WunderBlogs® & News

Nearby

Air Quality

  Air Quality AQ Index Pollutant
Not available.

Snow Depth

Station Depth Elevation

Earthquake Activity

City Distance Mag. Time & Date
Minimum magnitude displayed is 2.5.

Coastal Water Temperatures

Place Temperature

Nearby Weather Stations